sensor_id;sensor_type;location;lat;lon;timestamp;P1;durP1;ratioP1;P2;durP2;ratioP2
13493;SDS011;6819;50.886;4.332;2023-04-08T00:01:18;19.20;;;5.65;;
13493;SDS011;6819;50.886;4.332;2023-04-08T00:03:45;18.52;;;5.93;;
13493;SDS011;6819;50.886;4.332;2023-04-08T00:06:11;13.43;;;5.20;;
13493;SDS011;6819;50.886;4.332;2023-04-08T00:08:37;12.25;;;5.00;;
13493;SDS011;6819;50.886;4.332;2023-04-08T00:11:03;16.92;;;5.70;;
13493;SDS011;6819;50.886;4.332;2023-04-08T00:13:29;15.43;;;6.00;;
13493;SDS011;6819;50.886;4.332;2023-04-08T00:15:56;14.50;;;5.93;;
13493;SDS011;6819;50.886;4.332;2023-04-08T00:18:23;17.90;;;6.05;;
13493;SDS011;6819;50.886;4.332;2023-04-08T00:20:49;17.42;;;5.45;;
13493;SDS011;6819;50.886;4.332;2023-04-08T00:23:15;14.43;;;5.97;;
13493;SDS011;6819;50.886;4.332;2023-04-08T00:25:41;15.98;;;5.80;;
13493;SDS011;6819;50.886;4.332;2023-04-08T00:28:07;15.82;;;6.00;;
13493;SDS011;6819;50.886;4.332;2023-04-08T00:30:33;13.85;;;5.93;;
13493;SDS011;6819;50.886;4.332;2023-04-08T00:32:59;19.50;;;6.68;;
13493;SDS011;6819;50.886;4.332;2023-04-08T00:35:25;10.57;;;4.82;;
13493;SDS011;6819;50.886;4.332;2023-04-08T00:37:52;14.70;;;5.55;;
13493;SDS011;6819;50.886;4.332;2023-04-08T00:40:18;20.17;;;5.97;;
13493;SDS011;6819;50.886;4.332;2023-04-08T00:42:44;12.57;;;5.22;;
13493;SDS011;6819;50.886;4.332;2023-04-08T00:45:10;13.32;;;5.95;;
13493;SDS011;6819;50.886;4.332;2023-04-08T00:47:36;12.80;;;5.20;;
13493;SDS011;6819;50.886;4.332;2023-04-08T00:50:02;11.63;;;5.35;;
13493;SDS011;6819;50.886;4.332;2023-04-08T00:52:28;23.33;;;6.28;;
13493;SDS011;6819;50.886;4.332;2023-04-08T00:54:54;17.48;;;6.15;;
13493;SDS011;6819;50.886;4.332;2023-04-08T00:57:20;10.23;;;4.65;;
13493;SDS011;6819;50.886;4.332;2023-04-08T00:59:47;9.90;;;5.28;;
13493;SDS011;6819;50.886;4.332;2023-04-08T01:10:06;12.70;;;5.45;;
13493;SDS011;6819;50.886;4.332;2023-04-08T01:12:36;17.00;;;6.22;;
13493;SDS011;6819;50.886;4.332;2023-04-08T01:15:05;20.05;;;6.55;;
13493;SDS011;6819;50.886;4.332;2023-04-08T01:17:33;16.63;;;6.30;;
13493;SDS011;6819;50.886;4.332;2023-04-08T01:20:01;17.48;;;6.15;;
13493;SDS011;6819;50.886;4.332;2023-04-08T01:25:01;13.98;;;5.53;;
13493;SDS011;6819;50.886;4.332;2023-04-08T01:27:30;17.70;;;5.57;;
13493;SDS011;6819;50.886;4.332;2023-04-08T01:29:57;19.95;;;6.10;;
13493;SDS011;6819;50.886;4.332;2023-04-08T01:32:24;17.42;;;7.00;;
13493;SDS011;6819;50.886;4.332;2023-04-08T01:34:51;12.25;;;5.68;;
13493;SDS011;6819;50.886;4.332;2023-04-08T01:37:18;15.25;;;6.00;;
13493;SDS011;6819;50.886;4.332;2023-04-08T01:39:45;16.40;;;6.10;;
13493;SDS011;6819;50.886;4.332;2023-04-08T01:42:12;21.67;;;6.93;;
13493;SDS011;6819;50.886;4.332;2023-04-08T01:44:38;18.85;;;5.80;;
13493;SDS011;6819;50.886;4.332;2023-04-08T01:47:05;19.42;;;6.45;;
13493;SDS011;6819;50.886;4.332;2023-04-08T01:49:31;18.27;;;6.78;;
13493;SDS011;6819;50.886;4.332;2023-04-08T01:51:57;16.88;;;7.15;;
13493;SDS011;6819;50.886;4.332;2023-04-08T01:54:23;21.52;;;6.68;;
13493;SDS011;6819;50.886;4.332;2023-04-08T01:56:49;15.68;;;6.75;;
13493;SDS011;6819;50.886;4.332;2023-04-08T01:59:16;16.75;;;8.73;;
13493;SDS011;6819;50.886;4.332;2023-04-08T02:01:43;16.35;;;6.78;;
13493;SDS011;6819;50.886;4.332;2023-04-08T02:04:10;16.65;;;7.40;;
13493;SDS011;6819;50.886;4.332;2023-04-08T02:06:37;17.25;;;8.18;;
13493;SDS011;6819;50.886;4.332;2023-04-08T02:09:03;18.90;;;7.82;;
13493;SDS011;6819;50.886;4.332;2023-04-08T02:11:29;20.08;;;6.72;;
13493;SDS011;6819;50.886;4.332;2023-04-08T02:13:56;22.15;;;7.00;;
13493;SDS011;6819;50.886;4.332;2023-04-08T02:18:59;15.40;;;7.47;;
13493;SDS011;6819;50.886;4.332;2023-04-08T02:21:30;14.45;;;7.13;;
13493;SDS011;6819;50.886;4.332;2023-04-08T02:23:58;15.30;;;7.38;;
13493;SDS011;6819;50.886;4.332;2023-04-08T02:26:24;15.65;;;7.32;;
13493;SDS011;6819;50.886;4.332;2023-04-08T02:28:51;21.98;;;7.57;;
13493;SDS011;6819;50.886;4.332;2023-04-08T02:31:18;17.52;;;7.70;;
13493;SDS011;6819;50.886;4.332;2023-04-08T02:33:45;24.15;;;8.88;;
13493;SDS011;6819;50.886;4.332;2023-04-08T02:36:11;18.95;;;8.30;;
13493;SDS011;6819;50.886;4.332;2023-04-08T02:38:39;22.27;;;8.73;;
13493;SDS011;6819;50.886;4.332;2023-04-08T02:41:05;23.60;;;8.55;;
13493;SDS011;6819;50.886;4.332;2023-04-08T02:43:31;27.90;;;8.98;;
13493;SDS011;6819;50.886;4.332;2023-04-08T02:45:58;20.88;;;8.75;;
13493;SDS011;6819;50.886;4.332;2023-04-08T02:48:24;21.77;;;8.27;;
13493;SDS011;6819;50.886;4.332;2023-04-08T02:50:50;19.92;;;8.93;;
13493;SDS011;6819;50.886;4.332;2023-04-08T02:53:16;23.92;;;8.88;;
13493;SDS011;6819;50.886;4.332;2023-04-08T02:55:42;16.95;;;7.72;;
13493;SDS011;6819;50.886;4.332;2023-04-08T02:58:08;18.90;;;7.20;;
13493;SDS011;6819;50.886;4.332;2023-04-08T03:00:35;21.08;;;7.45;;
13493;SDS011;6819;50.886;4.332;2023-04-08T03:03:03;15.73;;;7.97;;
13493;SDS011;6819;50.886;4.332;2023-04-08T03:05:30;17.83;;;7.55;;
13493;SDS011;6819;50.886;4.332;2023-04-08T03:07:56;24.13;;;8.63;;
13493;SDS011;6819;50.886;4.332;2023-04-08T03:10:22;14.88;;;7.97;;
13493;SDS011;6819;50.886;4.332;2023-04-08T03:12:48;22.10;;;9.30;;
13493;SDS011;6819;50.886;4.332;2023-04-08T03:15:14;19.77;;;8.85;;
13493;SDS011;6819;50.886;4.332;2023-04-08T03:17:40;23.67;;;8.70;;
13493;SDS011;6819;50.886;4.332;2023-04-08T03:20:07;17.35;;;9.15;;
13493;SDS011;6819;50.886;4.332;2023-04-08T03:22:33;20.10;;;9.70;;
13493;SDS011;6819;50.886;4.332;2023-04-08T03:24:59;22.05;;;9.45;;
13493;SDS011;6819;50.886;4.332;2023-04-08T03:27:25;18.35;;;9.32;;
13493;SDS011;6819;50.886;4.332;2023-04-08T03:29:51;32.22;;;10.70;;
13493;SDS011;6819;50.886;4.332;2023-04-08T03:32:17;22.17;;;10.48;;
13493;SDS011;6819;50.886;4.332;2023-04-08T03:34:44;18.70;;;9.40;;
13493;SDS011;6819;50.886;4.332;2023-04-08T03:37:10;19.75;;;9.88;;
13493;SDS011;6819;50.886;4.332;2023-04-08T03:39:36;27.00;;;9.98;;
13493;SDS011;6819;50.886;4.332;2023-04-08T03:42:03;22.65;;;9.63;;
13493;SDS011;6819;50.886;4.332;2023-04-08T03:44:29;18.42;;;9.57;;
13493;SDS011;6819;50.886;4.332;2023-04-08T03:46:55;21.65;;;9.90;;
13493;SDS011;6819;50.886;4.332;2023-04-08T03:49:21;27.40;;;11.18;;
13493;SDS011;6819;50.886;4.332;2023-04-08T03:51:47;31.40;;;10.65;;
13493;SDS011;6819;50.886;4.332;2023-04-08T03:54:13;22.98;;;10.25;;
13493;SDS011;6819;50.886;4.332;2023-04-08T03:56:39;22.40;;;11.02;;
13493;SDS011;6819;50.886;4.332;2023-04-08T03:59:05;25.63;;;11.07;;
13493;SDS011;6819;50.886;4.332;2023-04-08T04:01:31;19.55;;;9.77;;
13493;SDS011;6819;50.886;4.332;2023-04-08T04:03:57;27.83;;;11.15;;
13493;SDS011;6819;50.886;4.332;2023-04-08T04:06:23;27.95;;;10.48;;
13493;SDS011;6819;50.886;4.332;2023-04-08T04:08:52;23.00;;;11.10;;
13493;SDS011;6819;50.886;4.332;2023-04-08T04:11:18;20.58;;;10.43;;
13493;SDS011;6819;50.886;4.332;2023-04-08T04:13:45;26.67;;;11.20;;
13493;SDS011;6819;50.886;4.332;2023-04-08T04:16:11;26.13;;;12.18;;
13493;SDS011;6819;50.886;4.332;2023-04-08T04:18:38;29.65;;;11.95;;
13493;SDS011;6819;50.886;4.332;2023-04-08T04:21:04;31.40;;;11.73;;
13493;SDS011;6819;50.886;4.332;2023-04-08T04:23:31;24.77;;;11.38;;
13493;SDS011;6819;50.886;4.332;2023-04-08T04:25:57;25.23;;;12.02;;
13493;SDS011;6819;50.886;4.332;2023-04-08T04:28:23;28.95;;;11.82;;
13493;SDS011;6819;50.886;4.332;2023-04-08T04:30:49;26.00;;;11.02;;
13493;SDS011;6819;50.886;4.332;2023-04-08T04:33:15;26.55;;;12.07;;
13493;SDS011;6819;50.886;4.332;2023-04-08T04:35:41;27.17;;;11.88;;
13493;SDS011;6819;50.886;4.332;2023-04-08T04:38:08;31.83;;;11.85;;
13493;SDS011;6819;50.886;4.332;2023-04-08T04:40:36;31.70;;;13.10;;
13493;SDS011;6819;50.886;4.332;2023-04-08T04:43:03;29.15;;;13.15;;
13493;SDS011;6819;50.886;4.332;2023-04-08T04:45:29;31.25;;;11.65;;
13493;SDS011;6819;50.886;4.332;2023-04-08T04:47:55;23.35;;;11.98;;
13493;SDS011;6819;50.886;4.332;2023-04-08T04:50:21;29.83;;;12.73;;
13493;SDS011;6819;50.886;4.332;2023-04-08T04:52:47;26.10;;;11.65;;
13493;SDS011;6819;50.886;4.332;2023-04-08T04:55:13;25.60;;;13.00;;
13493;SDS011;6819;50.886;4.332;2023-04-08T04:57:40;32.33;;;12.23;;
13493;SDS011;6819;50.886;4.332;2023-04-08T05:00:06;33.25;;;11.95;;
13493;SDS011;6819;50.886;4.332;2023-04-08T05:02:33;33.53;;;12.60;;
13493;SDS011;6819;50.886;4.332;2023-04-08T05:04:59;26.95;;;12.50;;
13493;SDS011;6819;50.886;4.332;2023-04-08T05:07:25;26.00;;;11.80;;
13493;SDS011;6819;50.886;4.332;2023-04-08T05:09:52;34.05;;;13.45;;
13493;SDS011;6819;50.886;4.332;2023-04-08T05:12:18;34.25;;;11.80;;
13493;SDS011;6819;50.886;4.332;2023-04-08T05:14:45;28.13;;;12.68;;
13493;SDS011;6819;50.886;4.332;2023-04-08T05:17:11;32.45;;;12.93;;
13493;SDS011;6819;50.886;4.332;2023-04-08T05:19:37;28.55;;;12.27;;
13493;SDS011;6819;50.886;4.332;2023-04-08T05:22:03;27.67;;;11.70;;
13493;SDS011;6819;50.886;4.332;2023-04-08T05:24:30;35.30;;;13.07;;
13493;SDS011;6819;50.886;4.332;2023-04-08T05:26:56;28.77;;;12.27;;
13493;SDS011;6819;50.886;4.332;2023-04-08T05:29:22;26.52;;;11.57;;
13493;SDS011;6819;50.886;4.332;2023-04-08T05:31:48;32.30;;;12.00;;
13493;SDS011;6819;50.886;4.332;2023-04-08T05:34:15;26.63;;;11.93;;
13493;SDS011;6819;50.886;4.332;2023-04-08T05:36:46;29.73;;;11.95;;
13493;SDS011;6819;50.886;4.332;2023-04-08T05:39:15;33.20;;;12.82;;
13493;SDS011;6819;50.886;4.332;2023-04-08T05:41:41;24.48;;;12.63;;
13493;SDS011;6819;50.886;4.332;2023-04-08T05:44:08;30.15;;;12.13;;
13493;SDS011;6819;50.886;4.332;2023-04-08T05:46:34;29.17;;;12.85;;
13493;SDS011;6819;50.886;4.332;2023-04-08T05:49:00;33.00;;;13.32;;
13493;SDS011;6819;50.886;4.332;2023-04-08T05:51:26;31.17;;;13.25;;
13493;SDS011;6819;50.886;4.332;2023-04-08T05:53:52;29.75;;;12.88;;
13493;SDS011;6819;50.886;4.332;2023-04-08T05:56:18;31.40;;;12.90;;
13493;SDS011;6819;50.886;4.332;2023-04-08T05:58:45;31.02;;;12.15;;
13493;SDS011;6819;50.886;4.332;2023-04-08T06:01:11;26.02;;;12.35;;
13493;SDS011;6819;50.886;4.332;2023-04-08T06:03:37;29.40;;;12.95;;
13493;SDS011;6819;50.886;4.332;2023-04-08T06:06:03;33.47;;;12.85;;
13493;SDS011;6819;50.886;4.332;2023-04-08T06:08:29;32.75;;;13.45;;
13493;SDS011;6819;50.886;4.332;2023-04-08T06:10:55;27.67;;;12.23;;
13493;SDS011;6819;50.886;4.332;2023-04-08T06:13:21;28.23;;;12.13;;
13493;SDS011;6819;50.886;4.332;2023-04-08T06:15:49;26.20;;;12.40;;
13493;SDS011;6819;50.886;4.332;2023-04-08T06:18:15;27.80;;;12.63;;
13493;SDS011;6819;50.886;4.332;2023-04-08T06:20:42;28.73;;;13.00;;
13493;SDS011;6819;50.886;4.332;2023-04-08T06:23:08;29.88;;;13.07;;
13493;SDS011;6819;50.886;4.332;2023-04-08T06:25:34;37.63;;;14.27;;
13493;SDS011;6819;50.886;4.332;2023-04-08T06:28:00;34.97;;;12.77;;
13493;SDS011;6819;50.886;4.332;2023-04-08T06:30:26;33.97;;;13.68;;
13493;SDS011;6819;50.886;4.332;2023-04-08T06:32:52;26.73;;;12.55;;
13493;SDS011;6819;50.886;4.332;2023-04-08T06:35:18;30.20;;;13.13;;
13493;SDS011;6819;50.886;4.332;2023-04-08T06:37:44;34.95;;;13.90;;
13493;SDS011;6819;50.886;4.332;2023-04-08T06:40:10;31.30;;;12.75;;
13493;SDS011;6819;50.886;4.332;2023-04-08T06:42:36;32.95;;;12.63;;
13493;SDS011;6819;50.886;4.332;2023-04-08T06:45:03;28.88;;;12.30;;
13493;SDS011;6819;50.886;4.332;2023-04-08T06:47:29;32.42;;;12.70;;
13493;SDS011;6819;50.886;4.332;2023-04-08T06:49:55;23.73;;;11.75;;
13493;SDS011;6819;50.886;4.332;2023-04-08T06:52:21;31.25;;;12.70;;
13493;SDS011;6819;50.886;4.332;2023-04-08T06:54:47;31.48;;;11.98;;
13493;SDS011;6819;50.886;4.332;2023-04-08T06:57:13;24.48;;;12.70;;
13493;SDS011;6819;50.886;4.332;2023-04-08T06:59:39;23.77;;;11.63;;
13493;SDS011;6819;50.886;4.332;2023-04-08T07:02:05;29.88;;;11.88;;
13493;SDS011;6819;50.886;4.332;2023-04-08T07:04:31;28.20;;;12.02;;
13493;SDS011;6819;50.886;4.332;2023-04-08T07:06:57;24.25;;;11.55;;
13493;SDS011;6819;50.886;4.332;2023-04-08T07:09:23;30.42;;;13.43;;
13493;SDS011;6819;50.886;4.332;2023-04-08T07:11:49;29.77;;;12.80;;
13493;SDS011;6819;50.886;4.332;2023-04-08T07:14:15;30.90;;;13.63;;
13493;SDS011;6819;50.886;4.332;2023-04-08T07:16:43;27.10;;;10.60;;
13493;SDS011;6819;50.886;4.332;2023-04-08T07:19:09;22.55;;;11.10;;
13493;SDS011;6819;50.886;4.332;2023-04-08T07:21:35;24.10;;;10.45;;
13493;SDS011;6819;50.886;4.332;2023-04-08T07:24:01;24.58;;;11.63;;
13493;SDS011;6819;50.886;4.332;2023-04-08T07:26:28;25.92;;;11.25;;
13493;SDS011;6819;50.886;4.332;2023-04-08T07:28:54;29.15;;;12.00;;
13493;SDS011;6819;50.886;4.332;2023-04-08T07:31:20;29.25;;;12.30;;
13493;SDS011;6819;50.886;4.332;2023-04-08T07:33:46;24.02;;;10.68;;
13493;SDS011;6819;50.886;4.332;2023-04-08T07:36:12;24.13;;;11.82;;
13493;SDS011;6819;50.886;4.332;2023-04-08T07:38:39;25.60;;;10.88;;
13493;SDS011;6819;50.886;4.332;2023-04-08T07:41:05;25.00;;;11.02;;
13493;SDS011;6819;50.886;4.332;2023-04-08T07:43:31;23.90;;;11.40;;
13493;SDS011;6819;50.886;4.332;2023-04-08T07:46:02;24.48;;;12.07;;
13493;SDS011;6819;50.886;4.332;2023-04-08T07:48:28;25.38;;;11.73;;
13493;SDS011;6819;50.886;4.332;2023-04-08T07:50:55;22.58;;;11.63;;
13493;SDS011;6819;50.886;4.332;2023-04-08T07:53:21;21.70;;;10.70;;
13493;SDS011;6819;50.886;4.332;2023-04-08T07:55:49;19.00;;;10.68;;
13493;SDS011;6819;50.886;4.332;2023-04-08T07:58:15;23.17;;;10.43;;
13493;SDS011;6819;50.886;4.332;2023-04-08T08:00:41;24.55;;;11.30;;
13493;SDS011;6819;50.886;4.332;2023-04-08T08:03:07;20.08;;;10.25;;
13493;SDS011;6819;50.886;4.332;2023-04-08T08:05:34;17.73;;;10.20;;
13493;SDS011;6819;50.886;4.332;2023-04-08T08:08:01;17.60;;;9.85;;
13493;SDS011;6819;50.886;4.332;2023-04-08T08:10:27;22.88;;;10.52;;
13493;SDS011;6819;50.886;4.332;2023-04-08T08:12:53;25.50;;;11.02;;
13493;SDS011;6819;50.886;4.332;2023-04-08T08:15:19;27.70;;;10.75;;
13493;SDS011;6819;50.886;4.332;2023-04-08T08:17:45;20.15;;;10.48;;
13493;SDS011;6819;50.886;4.332;2023-04-08T08:20:11;23.25;;;11.25;;
13493;SDS011;6819;50.886;4.332;2023-04-08T08:22:37;24.85;;;10.93;;
13493;SDS011;6819;50.886;4.332;2023-04-08T08:25:04;20.58;;;10.93;;
13493;SDS011;6819;50.886;4.332;2023-04-08T08:27:30;25.92;;;11.60;;
13493;SDS011;6819;50.886;4.332;2023-04-08T08:29:58;23.35;;;11.52;;
13493;SDS011;6819;50.886;4.332;2023-04-08T08:32:24;23.83;;;10.52;;
13493;SDS011;6819;50.886;4.332;2023-04-08T08:34:50;28.52;;;12.73;;
13493;SDS011;6819;50.886;4.332;2023-04-08T08:37:16;19.42;;;11.25;;
13493;SDS011;6819;50.886;4.332;2023-04-08T08:39:42;20.85;;;10.45;;
13493;SDS011;6819;50.886;4.332;2023-04-08T08:42:21;16.58;;;10.48;;
13493;SDS011;6819;50.886;4.332;2023-04-08T08:44:47;22.52;;;11.25;;
13493;SDS011;6819;50.886;4.332;2023-04-08T08:47:14;18.23;;;11.20;;
13493;SDS011;6819;50.886;4.332;2023-04-08T08:49:40;27.33;;;12.15;;
13493;SDS011;6819;50.886;4.332;2023-04-08T08:52:06;18.23;;;10.73;;
13493;SDS011;6819;50.886;4.332;2023-04-08T08:54:32;23.02;;;11.70;;
13493;SDS011;6819;50.886;4.332;2023-04-08T08:56:58;21.35;;;10.32;;
13493;SDS011;6819;50.886;4.332;2023-04-08T08:59:24;21.77;;;11.45;;
13493;SDS011;6819;50.886;4.332;2023-04-08T09:01:50;21.83;;;12.35;;
13493;SDS011;6819;50.886;4.332;2023-04-08T09:04:16;20.48;;;10.73;;
13493;SDS011;6819;50.886;4.332;2023-04-08T09:06:44;24.02;;;12.05;;
13493;SDS011;6819;50.886;4.332;2023-04-08T09:09:11;24.08;;;10.45;;
13493;SDS011;6819;50.886;4.332;2023-04-08T09:11:40;22.05;;;11.30;;
13493;SDS011;6819;50.886;4.332;2023-04-08T09:14:16;21.63;;;10.50;;
13493;SDS011;6819;50.886;4.332;2023-04-08T09:16:42;19.83;;;10.48;;
13493;SDS011;6819;50.886;4.332;2023-04-08T09:19:09;21.88;;;11.25;;
13493;SDS011;6819;50.886;4.332;2023-04-08T09:21:36;20.98;;;11.65;;
13493;SDS011;6819;50.886;4.332;2023-04-08T09:24:02;20.27;;;11.32;;
13493;SDS011;6819;50.886;4.332;2023-04-08T09:26:28;24.77;;;12.13;;
13493;SDS011;6819;50.886;4.332;2023-04-08T09:31:30;19.42;;;11.90;;
13493;SDS011;6819;50.886;4.332;2023-04-08T09:33:57;27.58;;;13.05;;
13493;SDS011;6819;50.886;4.332;2023-04-08T09:36:24;25.88;;;11.38;;
13493;SDS011;6819;50.886;4.332;2023-04-08T09:38:51;27.92;;;11.65;;
13493;SDS011;6819;50.886;4.332;2023-04-08T09:41:18;23.20;;;11.73;;
13493;SDS011;6819;50.886;4.332;2023-04-08T09:43:52;21.95;;;12.05;;
13493;SDS011;6819;50.886;4.332;2023-04-08T09:46:26;18.10;;;11.10;;
13493;SDS011;6819;50.886;4.332;2023-04-08T09:48:55;22.90;;;13.57;;
13493;SDS011;6819;50.886;4.332;2023-04-08T09:51:23;23.80;;;12.95;;
13493;SDS011;6819;50.886;4.332;2023-04-08T09:53:58;19.38;;;11.73;;
13493;SDS011;6819;50.886;4.332;2023-04-08T09:58:52;20.42;;;10.85;;
13493;SDS011;6819;50.886;4.332;2023-04-08T10:01:27;22.33;;;11.75;;
13493;SDS011;6819;50.886;4.332;2023-04-08T10:03:54;21.80;;;11.55;;
13493;SDS011;6819;50.886;4.332;2023-04-08T10:06:21;24.17;;;12.52;;
13493;SDS011;6819;50.886;4.332;2023-04-08T10:08:52;23.50;;;13.23;;
13493;SDS011;6819;50.886;4.332;2023-04-08T10:11:18;23.27;;;12.88;;
13493;SDS011;6819;50.886;4.332;2023-04-08T10:13:44;22.33;;;12.63;;
13493;SDS011;6819;50.886;4.332;2023-04-08T10:18:48;17.67;;;9.90;;
13493;SDS011;6819;50.886;4.332;2023-04-08T10:24:02;20.13;;;10.63;;
13493;SDS011;6819;50.886;4.332;2023-04-08T10:26:31;16.23;;;10.82;;
13493;SDS011;6819;50.886;4.332;2023-04-08T10:34:22;21.70;;;11.73;;
13493;SDS011;6819;50.886;4.332;2023-04-08T10:36:50;19.33;;;11.43;;
13493;SDS011;6819;50.886;4.332;2023-04-08T10:39:16;18.30;;;11.82;;
13493;SDS011;6819;50.886;4.332;2023-04-08T10:41:42;21.08;;;11.10;;
13493;SDS011;6819;50.886;4.332;2023-04-08T10:44:18;20.10;;;9.73;;
13493;SDS011;6819;50.886;4.332;2023-04-08T10:46:45;18.00;;;10.57;;
13493;SDS011;6819;50.886;4.332;2023-04-08T10:49:12;16.52;;;10.40;;
13493;SDS011;6819;50.886;4.332;2023-04-08T10:51:38;19.42;;;11.25;;
13493;SDS011;6819;50.886;4.332;2023-04-08T10:54:08;19.00;;;11.52;;
13493;SDS011;6819;50.886;4.332;2023-04-08T10:56:35;23.52;;;10.73;;
13493;SDS011;6819;50.886;4.332;2023-04-08T10:59:01;16.88;;;10.50;;
13493;SDS011;6819;50.886;4.332;2023-04-08T11:01:36;15.45;;;10.43;;
13493;SDS011;6819;50.886;4.332;2023-04-08T11:04:06;17.70;;;10.18;;
13493;SDS011;6819;50.886;4.332;2023-04-08T11:06:32;21.67;;;10.95;;
13493;SDS011;6819;50.886;4.332;2023-04-08T11:09:01;17.77;;;10.77;;
13493;SDS011;6819;50.886;4.332;2023-04-08T11:11:29;14.80;;;9.55;;
13493;SDS011;6819;50.886;4.332;2023-04-08T11:13:55;18.05;;;10.70;;
13493;SDS011;6819;50.886;4.332;2023-04-08T11:16:21;18.73;;;11.35;;
13493;SDS011;6819;50.886;4.332;2023-04-08T11:18:47;20.35;;;10.75;;
13493;SDS011;6819;50.886;4.332;2023-04-08T11:21:15;21.30;;;10.77;;
13493;SDS011;6819;50.886;4.332;2023-04-08T11:23:41;16.75;;;10.15;;
13493;SDS011;6819;50.886;4.332;2023-04-08T11:26:07;16.73;;;10.50;;
13493;SDS011;6819;50.886;4.332;2023-04-08T11:28:33;19.25;;;9.90;;
13493;SDS011;6819;50.886;4.332;2023-04-08T11:31:00;15.50;;;9.43;;
13493;SDS011;6819;50.886;4.332;2023-04-08T11:33:30;16.95;;;10.70;;
13493;SDS011;6819;50.886;4.332;2023-04-08T11:35:56;20.48;;;11.00;;
13493;SDS011;6819;50.886;4.332;2023-04-08T11:38:22;20.23;;;11.88;;
13493;SDS011;6819;50.886;4.332;2023-04-08T11:40:56;21.70;;;12.13;;
13493;SDS011;6819;50.886;4.332;2023-04-08T11:43:25;20.55;;;11.63;;
13493;SDS011;6819;50.886;4.332;2023-04-08T11:45:51;20.90;;;11.40;;
13493;SDS011;6819;50.886;4.332;2023-04-08T11:48:17;19.95;;;11.10;;
13493;SDS011;6819;50.886;4.332;2023-04-08T11:50:43;20.38;;;11.75;;
13493;SDS011;6819;50.886;4.332;2023-04-08T11:53:16;17.48;;;10.30;;
13493;SDS011;6819;50.886;4.332;2023-04-08T11:55:43;14.93;;;9.88;;
13493;SDS011;6819;50.886;4.332;2023-04-08T11:58:10;18.90;;;10.90;;
13493;SDS011;6819;50.886;4.332;2023-04-08T12:00:36;18.33;;;10.68;;
13493;SDS011;6819;50.886;4.332;2023-04-08T12:03:02;16.65;;;10.90;;
13493;SDS011;6819;50.886;4.332;2023-04-08T12:05:28;18.63;;;11.20;;
13493;SDS011;6819;50.886;4.332;2023-04-08T12:07:55;17.08;;;10.27;;
13493;SDS011;6819;50.886;4.332;2023-04-08T12:10:21;14.38;;;10.02;;
13493;SDS011;6819;50.886;4.332;2023-04-08T12:12:49;17.42;;;9.52;;
13493;SDS011;6819;50.886;4.332;2023-04-08T12:15:15;15.15;;;9.43;;
13493;SDS011;6819;50.886;4.332;2023-04-08T12:17:41;18.20;;;9.43;;
13493;SDS011;6819;50.886;4.332;2023-04-08T12:20:10;15.85;;;8.95;;
13493;SDS011;6819;50.886;4.332;2023-04-08T12:22:37;14.10;;;8.18;;
13493;SDS011;6819;50.886;4.332;2023-04-08T12:25:03;17.73;;;8.85;;
13493;SDS011;6819;50.886;4.332;2023-04-08T12:27:30;15.18;;;8.93;;
13493;SDS011;6819;50.886;4.332;2023-04-08T12:30:00;16.98;;;9.07;;
13493;SDS011;6819;50.886;4.332;2023-04-08T12:32:26;16.33;;;9.02;;
13493;SDS011;6819;50.886;4.332;2023-04-08T12:34:52;18.35;;;9.05;;
13493;SDS011;6819;50.886;4.332;2023-04-08T12:37:18;15.60;;;9.18;;
13493;SDS011;6819;50.886;4.332;2023-04-08T12:39:45;16.35;;;8.80;;
13493;SDS011;6819;50.886;4.332;2023-04-08T12:42:11;12.93;;;8.50;;
13493;SDS011;6819;50.886;4.332;2023-04-08T12:44:38;13.88;;;8.65;;
13493;SDS011;6819;50.886;4.332;2023-04-08T12:47:04;17.10;;;9.10;;
13493;SDS011;6819;50.886;4.332;2023-04-08T12:49:30;15.30;;;8.77;;
13493;SDS011;6819;50.886;4.332;2023-04-08T12:51:56;15.98;;;8.95;;
13493;SDS011;6819;50.886;4.332;2023-04-08T12:54:22;16.55;;;8.75;;
13493;SDS011;6819;50.886;4.332;2023-04-08T12:56:48;12.90;;;7.47;;
13493;SDS011;6819;50.886;4.332;2023-04-08T12:59:14;15.73;;;7.55;;
13493;SDS011;6819;50.886;4.332;2023-04-08T13:01:40;13.90;;;7.88;;
13493;SDS011;6819;50.886;4.332;2023-04-08T13:04:06;12.98;;;6.95;;
13493;SDS011;6819;50.886;4.332;2023-04-08T13:06:32;14.95;;;7.05;;
13493;SDS011;6819;50.886;4.332;2023-04-08T13:08:58;12.05;;;7.57;;
13493;SDS011;6819;50.886;4.332;2023-04-08T13:11:24;14.10;;;8.00;;
13493;SDS011;6819;50.886;4.332;2023-04-08T13:13:51;14.48;;;7.68;;
13493;SDS011;6819;50.886;4.332;2023-04-08T13:16:17;13.90;;;7.30;;
13493;SDS011;6819;50.886;4.332;2023-04-08T13:18:43;15.07;;;7.65;;
13493;SDS011;6819;50.886;4.332;2023-04-08T13:21:09;11.85;;;8.02;;
13493;SDS011;6819;50.886;4.332;2023-04-08T13:23:35;15.63;;;8.25;;
13493;SDS011;6819;50.886;4.332;2023-04-08T13:26:01;15.85;;;8.32;;
13493;SDS011;6819;50.886;4.332;2023-04-08T13:28:27;12.68;;;8.07;;
13493;SDS011;6819;50.886;4.332;2023-04-08T13:30:54;13.02;;;8.00;;
13493;SDS011;6819;50.886;4.332;2023-04-08T13:33:20;13.55;;;8.95;;
13493;SDS011;6819;50.886;4.332;2023-04-08T13:35:46;17.63;;;9.25;;
13493;SDS011;6819;50.886;4.332;2023-04-08T13:38:12;12.73;;;8.45;;
13493;SDS011;6819;50.886;4.332;2023-04-08T13:40:38;17.23;;;9.30;;
13493;SDS011;6819;50.886;4.332;2023-04-08T13:43:04;15.77;;;10.05;;
13493;SDS011;6819;50.886;4.332;2023-04-08T13:45:30;15.45;;;10.05;;
13493;SDS011;6819;50.886;4.332;2023-04-08T13:47:56;17.00;;;10.07;;
13493;SDS011;6819;50.886;4.332;2023-04-08T13:50:23;19.67;;;10.40;;
13493;SDS011;6819;50.886;4.332;2023-04-08T13:52:50;17.58;;;10.93;;
13493;SDS011;6819;50.886;4.332;2023-04-08T13:55:16;16.45;;;10.10;;
13493;SDS011;6819;50.886;4.332;2023-04-08T13:57:42;14.18;;;9.10;;
13493;SDS011;6819;50.886;4.332;2023-04-08T14:00:08;14.48;;;9.32;;
13493;SDS011;6819;50.886;4.332;2023-04-08T14:02:34;19.80;;;10.32;;
13493;SDS011;6819;50.886;4.332;2023-04-08T14:05:01;17.65;;;10.20;;
13493;SDS011;6819;50.886;4.332;2023-04-08T14:07:27;17.98;;;10.85;;
13493;SDS011;6819;50.886;4.332;2023-04-08T14:09:53;17.42;;;10.80;;
13493;SDS011;6819;50.886;4.332;2023-04-08T14:12:19;17.70;;;10.82;;
13493;SDS011;6819;50.886;4.332;2023-04-08T14:14:45;16.42;;;10.70;;
13493;SDS011;6819;50.886;4.332;2023-04-08T14:17:11;19.50;;;11.50;;
13493;SDS011;6819;50.886;4.332;2023-04-08T14:19:38;18.55;;;11.32;;
13493;SDS011;6819;50.886;4.332;2023-04-08T14:22:04;20.58;;;11.38;;
13493;SDS011;6819;50.886;4.332;2023-04-08T14:24:30;20.63;;;10.63;;
13493;SDS011;6819;50.886;4.332;2023-04-08T14:26:56;16.02;;;11.15;;
13493;SDS011;6819;50.886;4.332;2023-04-08T14:29:23;18.27;;;11.32;;
13493;SDS011;6819;50.886;4.332;2023-04-08T14:31:49;20.73;;;11.63;;
13493;SDS011;6819;50.886;4.332;2023-04-08T14:34:15;18.60;;;10.25;;
13493;SDS011;6819;50.886;4.332;2023-04-08T14:36:41;18.85;;;11.80;;
13493;SDS011;6819;50.886;4.332;2023-04-08T14:39:07;19.65;;;10.70;;
13493;SDS011;6819;50.886;4.332;2023-04-08T14:41:33;17.58;;;11.25;;
13493;SDS011;6819;50.886;4.332;2023-04-08T14:43:59;18.80;;;11.57;;
13493;SDS011;6819;50.886;4.332;2023-04-08T14:46:25;20.25;;;11.15;;
13493;SDS011;6819;50.886;4.332;2023-04-08T14:48:51;22.25;;;12.85;;
13493;SDS011;6819;50.886;4.332;2023-04-08T14:51:17;22.55;;;13.52;;
13493;SDS011;6819;50.886;4.332;2023-04-08T14:53:43;19.60;;;12.35;;
13493;SDS011;6819;50.886;4.332;2023-04-08T14:56:09;20.15;;;11.45;;
13493;SDS011;6819;50.886;4.332;2023-04-08T14:58:35;19.27;;;12.10;;
13493;SDS011;6819;50.886;4.332;2023-04-08T15:01:02;22.27;;;13.38;;
13493;SDS011;6819;50.886;4.332;2023-04-08T15:03:28;21.40;;;12.75;;